TimeEST,TemperatureF,Dew PointF,Humidity,Sea Level PressureIn,VisibilityMPH,Wind Direction,Wind SpeedMPH,Gust SpeedMPH,PrecipitationIn,Events,Conditions,WindDirDegrees,DateUTC
12:15 AM,50.0,50.0,100,30.16,0.2,Calm,Calm,-,N/A,Fog,Fog,0,2013-11-12 05:15:00
12:20 AM,51.8,51.8,100,30.16,0.5,Calm,Calm,-,N/A,Fog,Fog,0,2013-11-12 05:20:00
12:31 AM,53.6,53.6,100,30.16,0.2,Calm,Calm,-,N/A,Fog,Fog,0,2013-11-12 05:31:00
12:53 AM,55.9,55.9,100,30.15,0.2,Calm,Calm,-,N/A,Fog,Fog,0,2013-11-12 05:53:00
1:53 AM,55.0,55.0,100,30.14,0.2,Calm,Calm,-,N/A,Fog,Fog,0,2013-11-12 06:53:00
2:53 AM,54.0,54.0,100,30.13,0.2,Calm,Calm,-,N/A,Fog,Fog,0,2013-11-12 07:53:00
3:53 AM,53.1,53.1,100,30.13,0.2,Calm,Calm,-,N/A,Fog,Fog,0,2013-11-12 08:53:00
4:53 AM,52.0,52.0,100,30.13,0.5,Calm,Calm,-,N/A,Fog,Fog,0,2013-11-12 09:53:00
5:38 AM,51.8,51.8,100,30.15,0.2,Calm,Calm,-,N/A,Fog,Fog,0,2013-11-12 10:38:00
5:53 AM,51.1,51.1,100,30.15,0.2,Calm,Calm,-,N/A,Fog,Fog,0,2013-11-12 10:53:00
6:53 AM,51.1,51.1,100,30.15,0.2,Calm,Calm,-,N/A,Fog,Fog,0,2013-11-12 11:53:00
7:53 AM,50.0,50.0,100,30.16,0.2,Calm,Calm,-,N/A,Fog,Fog,0,2013-11-12 12:53:00
8:53 AM,51.1,51.1,100,30.16,0.2,Calm,Calm,-,N/A,Fog,Fog,0,2013-11-12 13:53:00
9:53 AM,54.0,54.0,100,30.16,0.2,Calm,Calm,-,N/A,Fog,Fog,0,2013-11-12 14:53:00
10:10 AM,55.4,55.4,100,30.16,0.8,Calm,Calm,-,N/A,,Overcast,0,2013-11-12 15:10:00
10:17 AM,55.4,55.4,100,30.16,2.0,Calm,Calm,-,N/A,,Overcast,0,2013-11-12 15:17:00
10:29 AM,57.2,57.2,100,30.16,4.0,Calm,Calm,-,N/A,,Overcast,0,2013-11-12 15:29:00
10:53 AM,62.1,60.1,93,30.15,9.0,Calm,Calm,-,N/A,,Scattered Clouds,0,2013-11-12 15:53:00
11:53 AM,69.1,57.0,65,30.12,10.0,Variable,6.9,-,N/A,,Clear,0,2013-11-12 16:53:00
12:53 PM,72.0,48.9,44,30.09,10.0,Variable,6.9,-,N/A,,Clear,0,2013-11-12 17:53:00
1:53 PM,72.0,42.1,34,30.06,10.0,West,5.8,-,N/A,,Clear,270,2013-11-12 18:53:00
2:53 PM,73.0,43.0,34,30.05,10.0,NW,9.2,-,N/A,,Clear,320,2013-11-12 19:53:00
3:53 PM,73.0,41.0,31,30.05,10.0,NW,9.2,-,N/A,,Clear,320,2013-11-12 20:53:00
4:53 PM,70.0,41.0,35,30.06,10.0,NW,3.5,-,N/A,,Clear,310,2013-11-12 21:53:00
5:53 PM,64.0,45.0,50,30.08,10.0,Calm,Calm,-,N/A,,Clear,0,2013-11-12 22:53:00
6:53 PM,63.0,46.0,54,30.11,10.0,NW,5.8,-,N/A,,Clear,320,2013-11-12 23:53:00
7:53 PM,63.0,44.1,50,30.14,10.0,NNW,11.5,-,N/A,,Clear,330,2013-11-13 00:53:00
8:53 PM,59.0,42.1,53,30.18,10.0,NNW,16.1,29.9,N/A,,Clear,340,2013-11-13 01:53:00
9:53 PM,55.0,39.0,55,30.23,10.0,NNW,16.1,29.9,N/A,,Clear,340,2013-11-13 02:53:00
10:53 PM,51.1,34.0,52,30.25,10.0,NNW,12.7,21.9,N/A,,Clear,340,2013-11-13 03:53:00
11:53 PM,48.9,33.1,54,30.27,10.0,NNW,9.2,20.7,N/A,,Clear,340,2013-11-13 04:53:00